sensor_id;sensor_type;location;lat;lon;timestamp;pressure;altitude;pressure_sealevel;temperature;humidity
73671;BME280;61968;48.178;11.566;2022-08-03T00:00:48;95895.50;;;23.22;32.37
73671;BME280;61968;48.178;11.566;2022-08-03T00:03:14;95897.47;;;23.16;32.29
73671;BME280;61968;48.178;11.566;2022-08-03T00:05:41;95897.66;;;23.20;32.24
73671;BME280;61968;48.178;11.566;2022-08-03T00:08:10;95895.50;;;23.22;32.16
73671;BME280;61968;48.178;11.566;2022-08-03T00:10:36;95892.25;;;23.20;32.54
73671;BME280;61968;48.178;11.566;2022-08-03T00:13:03;95900.69;;;23.18;32.43
73671;BME280;61968;48.178;11.566;2022-08-03T00:15:29;95886.53;;;23.12;32.20
73671;BME280;61968;48.178;11.566;2022-08-03T00:17:56;95888.91;;;23.14;32.33
73671;BME280;61968;48.178;11.566;2022-08-03T00:20:22;95894.09;;;23.10;32.63
73671;BME280;61968;48.178;11.566;2022-08-03T00:22:49;95887.13;;;23.09;32.96
73671;BME280;61968;48.178;11.566;2022-08-03T00:25:17;95882.97;;;23.03;32.64
73671;BME280;61968;48.178;11.566;2022-08-03T00:27:44;95882.00;;;22.99;32.85
73671;BME280;61968;48.178;11.566;2022-08-03T00:30:11;95889.09;;;22.95;32.82
73671;BME280;61968;48.178;11.566;2022-08-03T00:32:37;95893.00;;;22.89;33.35
73671;BME280;61968;48.178;11.566;2022-08-03T00:35:05;95886.16;;;22.83;33.27
73671;BME280;61968;48.178;11.566;2022-08-03T00:37:32;95883.00;;;22.89;32.95
73671;BME280;61968;48.178;11.566;2022-08-03T00:39:58;95883.69;;;22.95;33.42
73671;BME280;61968;48.178;11.566;2022-08-03T00:42:26;95878.81;;;22.97;32.98
73671;BME280;61968;48.178;11.566;2022-08-03T00:44:52;95881.44;;;22.88;33.04
73671;BME280;61968;48.178;11.566;2022-08-03T00:47:19;95886.38;;;22.73;33.59
73671;BME280;61968;48.178;11.566;2022-08-03T00:49:45;95883.94;;;22.62;33.81
73671;BME280;61968;48.178;11.566;2022-08-03T00:52:12;95886.72;;;22.57;33.67
73671;BME280;61968;48.178;11.566;2022-08-03T00:54:40;95883.25;;;22.43;33.82
73671;BME280;61968;48.178;11.566;2022-08-03T00:57:07;95885.44;;;22.41;33.82
73671;BME280;61968;48.178;11.566;2022-08-03T00:59:35;95886.44;;;22.45;33.77
73671;BME280;61968;48.178;11.566;2022-08-03T01:02:04;95880.19;;;22.36;33.70
73671;BME280;61968;48.178;11.566;2022-08-03T01:04:30;95880.03;;;22.41;33.68
73671;BME280;61968;48.178;11.566;2022-08-03T01:07:02;95881.84;;;22.45;33.90
73671;BME280;61968;48.178;11.566;2022-08-03T01:09:39;95880.53;;;22.57;33.61
73671;BME280;61968;48.178;11.566;2022-08-03T01:12:13;95875.84;;;22.62;33.33
73671;BME280;61968;48.178;11.566;2022-08-03T01:14:48;95879.75;;;22.56;33.46
73671;BME280;61968;48.178;11.566;2022-08-03T01:17:23;95872.63;;;22.60;33.30
73671;BME280;61968;48.178;11.566;2022-08-03T01:19:55;95873.16;;;22.62;33.33
73671;BME280;61968;48.178;11.566;2022-08-03T01:22:45;95869.75;;;22.57;32.90
73671;BME280;61968;48.178;11.566;2022-08-03T01:25:26;95866.25;;;22.56;33.09
73671;BME280;61968;48.178;11.566;2022-08-03T01:28:01;95864.84;;;22.59;33.27
73671;BME280;61968;48.178;11.566;2022-08-03T01:30:30;95863.97;;;22.63;32.95
73671;BME280;61968;48.178;11.566;2022-08-03T01:33:01;95869.25;;;22.69;33.32
73671;BME280;61968;48.178;11.566;2022-08-03T01:35:33;95858.94;;;22.71;32.99
73671;BME280;61968;48.178;11.566;2022-08-03T01:38:04;95859.72;;;22.71;33.25
73671;BME280;61968;48.178;11.566;2022-08-03T01:40:33;95869.53;;;22.67;33.59
73671;BME280;61968;48.178;11.566;2022-08-03T01:43:03;95865.25;;;22.66;32.99
73671;BME280;61968;48.178;11.566;2022-08-03T01:45:33;95865.25;;;22.66;33.51
73671;BME280;61968;48.178;11.566;2022-08-03T01:48:02;95859.06;;;22.65;33.52
73671;BME280;61968;48.178;11.566;2022-08-03T01:50:30;95860.16;;;22.64;33.72
73671;BME280;61968;48.178;11.566;2022-08-03T01:52:58;95864.53;;;22.60;33.67
73671;BME280;61968;48.178;11.566;2022-08-03T01:55:26;95862.75;;;22.56;33.89
73671;BME280;61968;48.178;11.566;2022-08-03T01:57:54;95859.59;;;22.54;34.05
73671;BME280;61968;48.178;11.566;2022-08-03T02:00:22;95860.66;;;22.53;34.07
73671;BME280;61968;48.178;11.566;2022-08-03T02:02:52;95852.91;;;22.51;33.86
73671;BME280;61968;48.178;11.566;2022-08-03T02:05:20;95851.78;;;22.52;33.91
73671;BME280;61968;48.178;11.566;2022-08-03T02:07:48;95854.19;;;22.54;33.69
73671;BME280;61968;48.178;11.566;2022-08-03T02:10:18;95856.38;;;22.52;33.74
73671;BME280;61968;48.178;11.566;2022-08-03T02:12:45;95860.47;;;22.49;34.13
73671;BME280;61968;48.178;11.566;2022-08-03T02:15:14;95856.19;;;22.48;33.95
73671;BME280;61968;48.178;11.566;2022-08-03T02:17:43;95857.59;;;22.45;34.18
73671;BME280;61968;48.178;11.566;2022-08-03T02:20:12;95862.81;;;22.42;33.91
73671;BME280;61968;48.178;11.566;2022-08-03T02:22:41;95861.19;;;22.41;34.08
73671;BME280;61968;48.178;11.566;2022-08-03T02:25:10;95864.03;;;22.36;33.93
73671;BME280;61968;48.178;11.566;2022-08-03T02:27:38;95861.59;;;22.34;34.52
73671;BME280;61968;48.178;11.566;2022-08-03T02:30:07;95861.44;;;22.31;34.42
73671;BME280;61968;48.178;11.566;2022-08-03T02:32:38;95864.13;;;22.31;34.03
73671;BME280;61968;48.178;11.566;2022-08-03T02:35:09;95867.00;;;22.34;34.02
73671;BME280;61968;48.178;11.566;2022-08-03T02:37:41;95865.09;;;22.35;34.40
73671;BME280;61968;48.178;11.566;2022-08-03T02:40:09;95860.63;;;22.30;34.33
73671;BME280;61968;48.178;11.566;2022-08-03T02:42:39;95867.41;;;22.28;34.16
73671;BME280;61968;48.178;11.566;2022-08-03T02:45:09;95867.41;;;22.28;34.09
73671;BME280;61968;48.178;11.566;2022-08-03T02:47:39;95862.03;;;22.28;34.31
73671;BME280;61968;48.178;11.566;2022-08-03T02:50:08;95854.75;;;22.28;34.56
73671;BME280;61968;48.178;11.566;2022-08-03T02:52:38;95860.44;;;22.27;34.46
73671;BME280;61968;48.178;11.566;2022-08-03T02:55:08;95853.25;;;22.22;34.11
73671;BME280;61968;48.178;11.566;2022-08-03T02:57:35;95862.03;;;22.14;34.46
73671;BME280;61968;48.178;11.566;2022-08-03T03:00:04;95863.34;;;22.16;34.37
73671;BME280;61968;48.178;11.566;2022-08-03T03:02:31;95858.06;;;22.11;34.40
73671;BME280;61968;48.178;11.566;2022-08-03T03:04:58;95864.25;;;22.12;34.14
73671;BME280;61968;48.178;11.566;2022-08-03T03:07:26;95855.56;;;22.15;34.01
73671;BME280;61968;48.178;11.566;2022-08-03T03:09:54;95856.88;;;22.17;34.47
73671;BME280;61968;48.178;11.566;2022-08-03T03:12:21;95857.47;;;22.14;34.08
73671;BME280;61968;48.178;11.566;2022-08-03T03:14:48;95852.38;;;22.13;34.54
73671;BME280;61968;48.178;11.566;2022-08-03T03:17:15;95849.41;;;22.14;34.18
73671;BME280;61968;48.178;11.566;2022-08-03T03:19:43;95851.97;;;22.19;34.48
73671;BME280;61968;48.178;11.566;2022-08-03T03:22:11;95850.19;;;22.15;34.48
73671;BME280;61968;48.178;11.566;2022-08-03T03:24:40;95852.59;;;22.03;34.36
73671;BME280;61968;48.178;11.566;2022-08-03T03:27:08;95846.63;;;22.06;34.49
73671;BME280;61968;48.178;11.566;2022-08-03T03:29:35;95844.22;;;22.04;34.17
73671;BME280;61968;48.178;11.566;2022-08-03T03:32:03;95853.06;;;22.05;34.29
73671;BME280;61968;48.178;11.566;2022-08-03T03:34:30;95855.50;;;22.06;34.40
73671;BME280;61968;48.178;11.566;2022-08-03T03:36:56;95856.09;;;22.03;34.30
73671;BME280;61968;48.178;11.566;2022-08-03T03:39:23;95855.50;;;22.06;34.57
73671;BME280;61968;48.178;11.566;2022-08-03T03:41:50;95852.19;;;22.09;34.33
73671;BME280;61968;48.178;11.566;2022-08-03T03:44:18;95851.09;;;22.10;34.43
73671;BME280;61968;48.178;11.566;2022-08-03T03:46:44;95859.47;;;22.09;33.98
73671;BME280;61968;48.178;11.566;2022-08-03T03:49:11;95864.06;;;22.08;34.46
73671;BME280;61968;48.178;11.566;2022-08-03T03:51:37;95867.38;;;22.05;34.54
73671;BME280;61968;48.178;11.566;2022-08-03T03:54:04;95859.06;;;22.02;34.50
73671;BME280;61968;48.178;11.566;2022-08-03T03:56:32;95861.25;;;21.99;34.69
73671;BME280;61968;48.178;11.566;2022-08-03T03:58:58;95864.44;;;22.02;34.56
73671;BME280;61968;48.178;11.566;2022-08-03T04:01:26;95859.06;;;22.02;34.46
73671;BME280;61968;48.178;11.566;2022-08-03T04:03:53;95858.38;;;21.96;34.70
73671;BME280;61968;48.178;11.566;2022-08-03T04:06:19;95859.94;;;21.97;34.66
73671;BME280;61968;48.178;11.566;2022-08-03T04:09:03;95858.06;;;21.97;34.90
73671;BME280;61968;48.178;11.566;2022-08-03T04:11:50;95862.13;;;21.95;34.72
73671;BME280;61968;48.178;11.566;2022-08-03T04:14:19;95872.63;;;21.96;34.25
73671;BME280;61968;48.178;11.566;2022-08-03T04:16:57;95861.94;;;21.91;34.45
73671;BME280;61968;48.178;11.566;2022-08-03T04:19:32;95864.63;;;21.91;34.74
73671;BME280;61968;48.178;11.566;2022-08-03T04:22:02;95857.34;;;21.92;34.33
73671;BME280;61968;48.178;11.566;2022-08-03T04:24:33;95864.03;;;21.94;34.36
73671;BME280;61968;48.178;11.566;2022-08-03T04:27:02;95867.22;;;21.96;34.43
73671;BME280;61968;48.178;11.566;2022-08-03T04:29:32;95867.94;;;21.88;34.65
73671;BME280;61968;48.178;11.566;2022-08-03T04:32:01;95873.50;;;21.92;34.52
73671;BME280;61968;48.178;11.566;2022-08-03T04:34:31;95875.91;;;21.93;34.50
73671;BME280;61968;48.178;11.566;2022-08-03T04:36:59;95878.09;;;21.91;34.73
73671;BME280;61968;48.178;11.566;2022-08-03T04:39:28;95873.50;;;21.92;34.74
73671;BME280;61968;48.178;11.566;2022-08-03T04:41:59;95865.94;;;21.94;34.78
73671;BME280;61968;48.178;11.566;2022-08-03T04:44:27;95870.22;;;21.95;34.81
73671;BME280;61968;48.178;11.566;2022-08-03T04:46:55;95869.94;;;21.96;34.85
73671;BME280;61968;48.178;11.566;2022-08-03T04:49:24;95876.72;;;21.94;34.90
73671;BME280;61968;48.178;11.566;2022-08-03T04:51:51;95876.38;;;21.95;34.78
73671;BME280;61968;48.178;11.566;2022-08-03T04:54:18;95870.72;;;21.97;34.84
73671;BME280;61968;48.178;11.566;2022-08-03T04:56:44;95881.16;;;21.98;34.50
73671;BME280;61968;48.178;11.566;2022-08-03T04:59:11;95883.06;;;21.98;34.51
73671;BME280;61968;48.178;11.566;2022-08-03T05:01:38;95875.00;;;21.98;34.50
73671;BME280;61968;48.178;11.566;2022-08-03T05:04:06;95883.38;;;21.96;34.65
73671;BME280;61968;48.178;11.566;2022-08-03T05:06:34;95892.34;;;21.92;34.55
73671;BME280;61968;48.178;11.566;2022-08-03T05:09:01;95888.34;;;21.89;34.80
73671;BME280;61968;48.178;11.566;2022-08-03T05:11:27;95883.78;;;21.90;34.81
73671;BME280;61968;48.178;11.566;2022-08-03T05:13:54;95893.13;;;21.92;34.51
73671;BME280;61968;48.178;11.566;2022-08-03T05:16:20;95886.38;;;21.95;34.74
73671;BME280;61968;48.178;11.566;2022-08-03T05:18:47;95896.66;;;21.93;34.43
73671;BME280;61968;48.178;11.566;2022-08-03T05:21:13;95894.75;;;21.93;34.08
73671;BME280;61968;48.178;11.566;2022-08-03T05:23:42;95895.34;;;21.90;34.82
73671;BME280;61968;48.178;11.566;2022-08-03T05:26:09;95898.75;;;21.96;34.31
73671;BME280;61968;48.178;11.566;2022-08-03T05:28:37;95898.06;;;22.04;33.90
73671;BME280;61968;48.178;11.566;2022-08-03T05:31:03;95899.16;;;22.03;33.98
73671;BME280;61968;48.178;11.566;2022-08-03T05:33:30;95905.34;;;22.04;34.35
73671;BME280;61968;48.178;11.566;2022-08-03T05:35:56;95900.16;;;22.07;34.08
73671;BME280;61968;48.178;11.566;2022-08-03T05:38:24;95905.72;;;22.11;34.17
73671;BME280;61968;48.178;11.566;2022-08-03T05:40:51;95905.25;;;22.09;33.78
73671;BME280;61968;48.178;11.566;2022-08-03T05:43:18;95905.72;;;22.11;33.99
73671;BME280;61968;48.178;11.566;2022-08-03T05:45:44;95904.34;;;22.13;33.85
73671;BME280;61968;48.178;11.566;2022-08-03T05:48:11;95906.84;;;22.10;33.89
73671;BME280;61968;48.178;11.566;2022-08-03T05:50:37;95905.25;;;22.09;33.93
73671;BME280;61968;48.178;11.566;2022-08-03T05:53:04;95903.16;;;22.06;34.07
73671;BME280;61968;48.178;11.566;2022-08-03T05:55:30;95893.25;;;22.01;34.38
73671;BME280;61968;48.178;11.566;2022-08-03T05:57:58;95890.56;;;22.01;33.95
73671;BME280;61968;48.178;11.566;2022-08-03T06:00:26;95895.56;;;22.08;33.90
73671;BME280;61968;48.178;11.566;2022-08-03T06:02:53;95903.44;;;22.04;34.06
73671;BME280;61968;48.178;11.566;2022-08-03T06:05:19;95909.53;;;22.10;34.24
73671;BME280;61968;48.178;11.566;2022-08-03T06:07:46;95903.34;;;22.09;33.88
73671;BME280;61968;48.178;11.566;2022-08-03T06:10:12;95896.97;;;22.05;33.83
73671;BME280;61968;48.178;11.566;2022-08-03T06:12:39;95903.94;;;22.06;33.52
73671;BME280;61968;48.178;11.566;2022-08-03T06:15:08;95912.03;;;22.06;33.98
73671;BME280;61968;48.178;11.566;2022-08-03T06:17:43;95901.34;;;22.15;33.87
73671;BME280;61968;48.178;11.566;2022-08-03T06:20:10;95900.66;;;22.23;34.13
73671;BME280;61968;48.178;11.566;2022-08-03T06:22:37;95910.31;;;22.10;33.71
73671;BME280;61968;48.178;11.566;2022-08-03T06:25:04;95911.53;;;22.04;33.98
73671;BME280;61968;48.178;11.566;2022-08-03T06:27:31;95917.50;;;22.15;33.74
73671;BME280;61968;48.178;11.566;2022-08-03T06:29:58;95916.72;;;22.14;34.24
73671;BME280;61968;48.178;11.566;2022-08-03T06:32:25;95917.19;;;22.16;34.01
73671;BME280;61968;48.178;11.566;2022-08-03T06:34:52;95924.06;;;22.22;33.74
73671;BME280;61968;48.178;11.566;2022-08-03T06:37:18;95927.28;;;22.25;33.55
73671;BME280;61968;48.178;11.566;2022-08-03T06:39:45;95919.50;;;22.23;33.36
73671;BME280;61968;48.178;11.566;2022-08-03T06:42:11;95921.38;;;22.22;33.62
73671;BME280;61968;48.178;11.566;2022-08-03T06:44:38;95913.31;;;22.22;33.13
73671;BME280;61968;48.178;11.566;2022-08-03T06:47:04;95913.09;;;22.33;33.44
73671;BME280;61968;48.178;11.566;2022-08-03T06:49:32;95911.00;;;22.30;33.14
73671;BME280;61968;48.178;11.566;2022-08-03T06:51:59;95917.19;;;22.16;33.49
73671;BME280;61968;48.178;11.566;2022-08-03T06:54:25;95922.69;;;22.11;33.49
73671;BME280;61968;48.178;11.566;2022-08-03T06:56:52;95923.09;;;22.05;33.33
73671;BME280;61968;48.178;11.566;2022-08-03T06:59:19;95927.25;;;22.11;33.14
73671;BME280;61968;48.178;11.566;2022-08-03T07:01:45;95918.91;;;22.12;32.87
73671;BME280;61968;48.178;11.566;2022-08-03T07:04:12;95922.19;;;22.23;32.97
73671;BME280;61968;48.178;11.566;2022-08-03T07:06:39;95916.69;;;22.28;32.52
73671;BME280;61968;48.178;11.566;2022-08-03T07:09:06;95924.47;;;22.30;32.80
73671;BME280;61968;48.178;11.566;2022-08-03T07:11:33;95921.69;;;22.21;33.53
73671;BME280;61968;48.178;11.566;2022-08-03T07:13:59;95927.88;;;22.21;33.77
73671;BME280;61968;48.178;11.566;2022-08-03T07:16:26;95912.81;;;22.20;33.17
73671;BME280;61968;48.178;11.566;2022-08-03T07:18:52;95907.31;;;22.26;33.30
73671;BME280;61968;48.178;11.566;2022-08-03T07:21:19;95912.09;;;22.29;33.90
73671;BME280;61968;48.178;11.566;2022-08-03T07:23:46;95916.41;;;22.30;33.13
73671;BME280;61968;48.178;11.566;2022-08-03T07:26:13;95908.78;;;22.32;33.39
73671;BME280;61968;48.178;11.566;2022-08-03T07:28:39;95906.50;;;22.39;33.50
73671;BME280;61968;48.178;11.566;2022-08-03T07:31:06;95911.28;;;22.42;33.69
73671;BME280;61968;48.178;11.566;2022-08-03T07:33:32;95905.91;;;22.42;33.72
73671;BME280;61968;48.178;11.566;2022-08-03T07:35:59;95911.56;;;22.54;32.78
73671;BME280;61968;48.178;11.566;2022-08-03T07:38:25;95903.88;;;22.61;33.16
73671;BME280;61968;48.178;11.566;2022-08-03T07:40:54;95903.88;;;22.61;33.14
73671;BME280;61968;48.178;11.566;2022-08-03T07:43:21;95904.75;;;22.71;32.65
73671;BME280;61968;48.178;11.566;2022-08-03T07:45:48;95900.66;;;22.73;32.61
73671;BME280;61968;48.178;11.566;2022-08-03T07:48:15;95907.25;;;22.81;32.81
73671;BME280;61968;48.178;11.566;2022-08-03T07:50:41;95900.97;;;22.72;32.63
73671;BME280;61968;48.178;11.566;2022-08-03T07:53:08;95904.03;;;22.79;33.29
73671;BME280;61968;48.178;11.566;2022-08-03T07:55:34;95901.59;;;22.91;32.60
73671;BME280;61968;48.178;11.566;2022-08-03T07:58:04;95900.38;;;22.97;32.34
73671;BME280;61968;48.178;11.566;2022-08-03T08:00:32;95901.88;;;22.89;32.80
73671;BME280;61968;48.178;11.566;2022-08-03T08:02:59;95890.19;;;22.94;33.15
73671;BME280;61968;48.178;11.566;2022-08-03T08:05:26;95893.03;;;23.11;32.29
73671;BME280;61968;48.178;11.566;2022-08-03T08:07:53;95895.16;;;23.01;32.25
73671;BME280;61968;48.178;11.566;2022-08-03T08:10:20;95893.03;;;23.11;32.58
73671;BME280;61968;48.178;11.566;2022-08-03T08:12:47;95895.09;;;23.15;32.48
73671;BME280;61968;48.178;11.566;2022-08-03T08:15:15;95897.66;;;23.20;31.95
73671;BME280;61968;48.178;11.566;2022-08-03T08:17:43;95895.28;;;23.18;32.98
73671;BME280;61968;48.178;11.566;2022-08-03T08:20:11;95899.16;;;23.26;32.27
73671;BME280;61968;48.178;11.566;2022-08-03T08:22:40;95888.69;;;23.24;31.77
73671;BME280;61968;48.178;11.566;2022-08-03T08:25:07;95893.53;;;23.36;31.46
73671;BME280;61968;48.178;11.566;2022-08-03T08:27:40;95890.81;;;23.36;32.00
73671;BME280;61968;48.178;11.566;2022-08-03T08:30:07;95890.50;;;23.38;32.06
73671;BME280;61968;48.178;11.566;2022-08-03T08:32:35;95891.31;;;23.38;31.68
73671;BME280;61968;48.178;11.566;2022-08-03T08:35:02;95884.19;;;23.42;31.90
73671;BME280;61968;48.178;11.566;2022-08-03T08:37:29;95888.34;;;23.48;32.05
73671;BME280;61968;48.178;11.566;2022-08-03T08:39:55;95892.38;;;23.60;31.70
73671;BME280;61968;48.178;11.566;2022-08-03T08:42:22;95893.97;;;23.61;31.85
73671;BME280;61968;48.178;11.566;2022-08-03T08:44:48;95883.53;;;23.76;30.67
73671;BME280;61968;48.178;11.566;2022-08-03T08:47:16;95883.13;;;23.83;30.79
73671;BME280;61968;48.178;11.566;2022-08-03T08:49:46;95881.97;;;23.75;30.97
73671;BME280;61968;48.178;11.566;2022-08-03T08:52:13;95881.25;;;23.92;30.90
73671;BME280;61968;48.178;11.566;2022-08-03T08:54:40;95882.22;;;23.96;30.99
73671;BME280;61968;48.178;11.566;2022-08-03T08:57:09;95874.75;;;23.93;31.40
73671;BME280;61968;48.178;11.566;2022-08-03T08:59:36;95881.63;;;24.08;30.56
73671;BME280;61968;48.178;11.566;2022-08-03T09:02:03;95871.75;;;24.03;29.75
73671;BME280;61968;48.178;11.566;2022-08-03T09:04:30;95877.16;;;24.03;29.81
73671;BME280;61968;48.178;11.566;2022-08-03T09:06:57;95861.31;;;24.11;30.09
73671;BME280;61968;48.178;11.566;2022-08-03T09:09:24;95870.84;;;24.17;30.45
73671;BME280;61968;48.178;11.566;2022-08-03T09:11:50;95872.44;;;24.18;30.41
73671;BME280;61968;48.178;11.566;2022-08-03T09:14:17;95872.44;;;24.18;30.47
73671;BME280;61968;48.178;11.566;2022-08-03T09:16:55;95872.75;;;24.25;29.72
73671;BME280;61968;48.178;11.566;2022-08-03T09:19:24;95875.00;;;24.23;29.83
73671;BME280;61968;48.178;11.566;2022-08-03T09:22:07;95869.75;;;24.26;29.97
73671;BME280;61968;48.178;11.566;2022-08-03T09:24:33;95866.56;;;24.24;29.63
73671;BME280;61968;48.178;11.566;2022-08-03T09:27:00;95865.94;;;24.27;29.20
73671;BME280;61968;48.178;11.566;2022-08-03T09:29:30;95877.44;;;24.42;29.41
73671;BME280;61968;48.178;11.566;2022-08-03T09:31:59;95866.78;;;24.54;29.95
73671;BME280;61968;48.178;11.566;2022-08-03T09:34:26;95870.44;;;24.58;28.43
73671;BME280;61968;48.178;11.566;2022-08-03T09:36:53;95868.69;;;24.62;27.89
73671;BME280;61968;48.178;11.566;2022-08-03T09:39:25;95869.63;;;24.58;28.75
73671;BME280;61968;48.178;11.566;2022-08-03T09:42:05;95869.31;;;24.68;28.14
73671;BME280;61968;48.178;11.566;2022-08-03T09:44:35;95869.81;;;24.79;28.96
73671;BME280;61968;48.178;11.566;2022-08-03T09:47:03;95864.88;;;24.81;27.69
73671;BME280;61968;48.178;11.566;2022-08-03T09:49:30;95869.97;;;24.91;28.61
73671;BME280;61968;48.178;11.566;2022-08-03T09:52:00;95869.66;;;24.84;29.18
73671;BME280;61968;48.178;11.566;2022-08-03T09:54:29;95867.41;;;24.77;29.22
73671;BME280;61968;48.178;11.566;2022-08-03T09:56:57;95868.84;;;24.92;29.02
73671;BME280;61968;48.178;11.566;2022-08-03T09:59:25;95867.28;;;25.00;29.85
73671;BME280;61968;48.178;11.566;2022-08-03T10:01:53;95872.69;;;25.00;29.71
73671;BME280;61968;48.178;11.566;2022-08-03T10:04:20;95871.56;;;25.01;29.26
73671;BME280;61968;48.178;11.566;2022-08-03T10:07:01;95869.63;;;25.01;27.57
73671;BME280;61968;48.178;11.566;2022-08-03T10:09:30;95863.78;;;25.08;28.07
73671;BME280;61968;48.178;11.566;2022-08-03T10:11:56;95859.78;;;25.14;28.29
73671;BME280;61968;48.178;11.566;2022-08-03T10:14:24;95864.53;;;25.17;28.15
73671;BME280;61968;48.178;11.566;2022-08-03T10:16:54;95865.00;;;25.19;27.67
73671;BME280;61968;48.178;11.566;2022-08-03T10:19:21;95868.03;;;25.26;26.69
73671;BME280;61968;48.178;11.566;2022-08-03T10:21:49;95853.50;;;25.31;26.80
73671;BME280;61968;48.178;11.566;2022-08-03T10:24:23;95859.06;;;25.34;26.64
73671;BME280;61968;48.178;11.566;2022-08-03T10:26:52;95857.97;;;25.35;27.45
73671;BME280;61968;48.178;11.566;2022-08-03T10:29:23;95853.66;;;25.34;26.31
73671;BME280;61968;48.178;11.566;2022-08-03T10:31:57;95855.88;;;25.41;26.23
73671;BME280;61968;48.178;11.566;2022-08-03T10:34:25;95852.72;;;25.48;24.97
73671;BME280;61968;48.178;11.566;2022-08-03T10:36:55;95844.88;;;25.55;23.37
73671;BME280;61968;48.178;11.566;2022-08-03T10:39:26;95846.94;;;25.58;23.26
73671;BME280;61968;48.178;11.566;2022-08-03T10:41:56;95845.00;;;25.58;23.74
73671;BME280;61968;48.178;11.566;2022-08-03T10:44:25;95848.06;;;25.57;25.00
73671;BME280;61968;48.178;11.566;2022-08-03T10:46:55;95852.34;;;25.58;23.55
73671;BME280;61968;48.178;11.566;2022-08-03T10:49:22;95842.13;;;25.64;24.22
73671;BME280;61968;48.178;11.566;2022-08-03T10:51:50;95835.00;;;25.59;22.94
73671;BME280;61968;48.178;11.566;2022-08-03T10:54:38;95835.59;;;25.65;21.91
73671;BME280;61968;48.178;11.566;2022-08-03T10:57:43;95825.09;;;25.63;23.84
73671;BME280;61968;48.178;11.566;2022-08-03T11:00:10;95824.47;;;25.57;22.20
73671;BME280;61968;48.178;11.566;2022-08-03T11:03:03;95830.13;;;25.73;22.77
73671;BME280;61968;48.178;11.566;2022-08-03T11:05:32;95825.59;;;25.86;22.79
73671;BME280;61968;48.178;11.566;2022-08-03T11:08:22;95820.19;;;25.86;21.05
73671;BME280;61968;48.178;11.566;2022-08-03T11:10:51;95822.84;;;25.95;22.45
73671;BME280;61968;48.178;11.566;2022-08-03T11:13:20;95829.09;;;25.95;22.02
73671;BME280;61968;48.178;11.566;2022-08-03T11:15:50;95831.31;;;26.02;21.53
73671;BME280;61968;48.178;11.566;2022-08-03T11:18:16;95819.34;;;26.03;21.59
73671;BME280;61968;48.178;11.566;2022-08-03T11:20:45;95823.03;;;25.98;22.76
73671;BME280;61968;48.178;11.566;2022-08-03T11:23:12;95813.25;;;26.06;21.60
73671;BME280;61968;48.178;11.566;2022-08-03T11:26:07;95817.84;;;26.14;21.60
73671;BME280;61968;48.178;11.566;2022-08-03T11:28:35;95813.81;;;26.20;22.65
73671;BME280;61968;48.178;11.566;2022-08-03T11:34:22;95815.19;;;26.47;20.53
73671;BME280;61968;48.178;11.566;2022-08-03T11:37:19;95823.50;;;26.51;19.98
73671;BME280;61968;48.178;11.566;2022-08-03T11:39:49;95821.25;;;26.53;20.27
73671;BME280;61968;48.178;11.566;2022-08-03T11:42:41;95814.50;;;26.59;20.90
73671;BME280;61968;48.178;11.566;2022-08-03T11:45:13;95818.84;;;26.72;20.66
73671;BME280;61968;48.178;11.566;2022-08-03T11:47:41;95819.66;;;26.85;20.61
73671;BME280;61968;48.178;11.566;2022-08-03T11:50:08;95811.66;;;26.89;20.52
73671;BME280;61968;48.178;11.566;2022-08-03T11:52:39;95808.41;;;26.95;20.88
73671;BME280;61968;48.178;11.566;2022-08-03T11:55:17;95813.97;;;26.99;20.26
73671;BME280;61968;48.178;11.566;2022-08-03T11:57:44;95807.16;;;26.93;18.70
73671;BME280;61968;48.178;11.566;2022-08-03T12:00:27;95807.59;;;26.95;20.54
73671;BME280;61968;48.178;11.566;2022-08-03T12:03:05;95803.06;;;27.08;20.61
73671;BME280;61968;48.178;11.566;2022-08-03T12:05:33;95802.28;;;27.19;21.02
73671;BME280;61968;48.178;11.566;2022-08-03T12:08:00;95803.41;;;27.31;21.58
73671;BME280;61968;48.178;11.566;2022-08-03T12:10:26;95799.50;;;27.40;20.41
73671;BME280;61968;48.178;11.566;2022-08-03T12:12:54;95784.44;;;27.43;20.28
73671;BME280;61968;48.178;11.566;2022-08-03T12:15:25;95784.22;;;27.36;20.98
73671;BME280;61968;48.178;11.566;2022-08-03T12:17:52;95777.22;;;27.47;21.09
73671;BME280;61968;48.178;11.566;2022-08-03T12:20:20;95785.38;;;27.59;20.94
73671;BME280;61968;48.178;11.566;2022-08-03T12:22:47;95785.09;;;27.52;20.21
73671;BME280;61968;48.178;11.566;2022-08-03T12:25:20;95776.31;;;27.55;20.36
73671;BME280;61968;48.178;11.566;2022-08-03T12:27:47;95778.50;;;27.62;20.37
73671;BME280;61968;48.178;11.566;2022-08-03T12:30:14;95766.94;;;27.65;20.00
73671;BME280;61968;48.178;11.566;2022-08-03T12:32:43;95774.53;;;27.72;20.58
73671;BME280;61968;48.178;11.566;2022-08-03T12:35:09;95777.22;;;27.72;20.83
73671;BME280;61968;48.178;11.566;2022-08-03T12:37:36;95778.78;;;27.85;20.57
73671;BME280;61968;48.178;11.566;2022-08-03T12:40:04;95775.84;;;27.90;20.00
73671;BME280;61968;48.178;11.566;2022-08-03T12:42:31;95784.78;;;28.03;20.03
73671;BME280;61968;48.178;11.566;2022-08-03T12:44:58;95788.75;;;28.05;20.95
73671;BME280;61968;48.178;11.566;2022-08-03T12:47:25;95774.81;;;28.07;20.56
73671;BME280;61968;48.178;11.566;2022-08-03T12:49:53;95776.28;;;28.17;21.28
73671;BME280;61968;48.178;11.566;2022-08-03T12:52:21;95771.75;;;28.21;20.72
73671;BME280;61968;48.178;11.566;2022-08-03T12:54:54;95774.25;;;28.14;20.30
73671;BME280;61968;48.178;11.566;2022-08-03T12:57:21;95770.38;;;28.27;21.51
73671;BME280;61968;48.178;11.566;2022-08-03T12:59:48;95772.25;;;28.39;20.11
73671;BME280;61968;48.178;11.566;2022-08-03T13:02:16;95772.53;;;28.49;21.56